Decoded Metar for KHBI (ASHEBORO MUNI in NC, USA) (IATA:HBI) | Meteo·Mobile Aviation Weather
aviador You're here:

KHBI Decoded Metar

ASHEBORO MUNI in NC, USA
Report Time2018-12-10 10:05:00
UTC Time2018-12-10 10:26:53
Flight Rules ifr IFR
Wind020° at 08 kt
W.Decomp.*RWY 03: 8.0 kt HW 0.3 kt LCW
W.Rank020° ranks 5
Current wind is above 020° avg. (5.6)
Visibility4828 m
Phenomena:N/A
Clouds:Overcast 007 Hf
Ceiling700 ft
Temp00°C (ISA -14)
Dew Point00°C (100% RH)
AAT-4.9°C
QNH1016 hPa
Density Alt-1,010 ft
Elevation673 ft
Report Wrong Elevation
Raw Report
METAR KHBI 101005Z AUTO 02008KT 3SM UP OVC007 00/00 A3000 RMK AO2 P0001
T00040002=

Extra information for KHBI:More info

Metar Taf Metar & Taf Last 4 Metars F.Rules Stats Wind Profile Meteogram Temp Stats Airport Information Weather charts Add Link Nearby VenuesMetar ALERT Operation Metar Decoded Social comments

AIRNAV info for KHBI